createdAt,value
2023-12-07T00:00:22.788Z,101181.94
2023-12-07T00:02:50.618Z,101172.59
2023-12-07T00:05:18.433Z,101173.50
2023-12-07T00:07:46.223Z,101172.53
2023-12-07T00:10:14.030Z,101171.00
2023-12-07T00:12:41.820Z,101168.53
2023-12-07T00:15:11.689Z,101170.38
2023-12-07T00:17:39.540Z,101169.59
2023-12-07T00:20:08.561Z,101173.00
2023-12-07T00:22:36.552Z,101173.84
2023-12-07T00:25:04.843Z,101181.56
2023-12-07T00:27:32.601Z,101174.75
2023-12-07T00:30:00.384Z,101167.03
2023-12-07T00:32:29.452Z,101166.13
2023-12-07T00:34:57.353Z,101168.69
2023-12-07T00:37:25.219Z,101160.19
2023-12-07T00:39:53.094Z,101168.91
2023-12-07T00:42:21.189Z,101170.66
2023-12-07T00:44:49.066Z,101171.53
2023-12-07T00:47:16.909Z,101162.91
2023-12-07T00:49:46.005Z,101160.44
2023-12-07T00:52:13.891Z,101159.53
2023-12-07T00:54:41.933Z,101166.47
2023-12-07T00:57:09.723Z,101166.53
2023-12-07T00:59:38.202Z,101158.81
2023-12-07T01:02:06.123Z,101158.91
2023-12-07T01:04:34.548Z,101162.44
2023-12-07T01:07:04.166Z,101159.94
2023-12-07T01:09:32.097Z,101158.25
2023-12-07T01:12:00.103Z,101162.56
2023-12-07T01:14:27.988Z,101171.09
2023-12-07T01:16:55.743Z,101173.78
2023-12-07T01:19:23.608Z,101177.19
2023-12-07T01:21:51.389Z,101170.34
2023-12-07T01:24:20.540Z,101175.56
2023-12-07T01:26:48.347Z,101171.28
2023-12-07T01:29:16.134Z,101179.06
2023-12-07T01:31:44.053Z,101173.06
2023-12-07T01:34:12.127Z,101173.06
2023-12-07T01:36:40.037Z,101181.66
2023-12-07T01:39:08.466Z,101175.59
2023-12-07T01:41:37.626Z,101179.97
2023-12-07T01:44:05.537Z,101180.81
2023-12-07T01:46:34.445Z,101183.31
2023-12-07T01:49:03.031Z,101190.22
2023-12-07T01:51:31.005Z,101189.38
2023-12-07T01:53:59.023Z,101202.31
2023-12-07T01:56:27.344Z,101195.38
2023-12-07T01:58:56.639Z,101191.88
2023-12-07T02:01:24.824Z,101190.19
2023-12-07T02:03:52.697Z,101197.94
2023-12-07T02:06:21.488Z,101200.53
2023-12-07T02:08:49.267Z,101194.47
2023-12-07T02:11:17.341Z,101200.53
2023-12-07T07:29:42.145Z,101243.94
2023-12-07T07:32:12.411Z,101245.66
2023-12-07T07:34:44.843Z,101249.13
2023-12-07T07:37:13.501Z,101248.28
2023-12-07T07:39:41.503Z,101250.88
2023-12-07T07:42:09.619Z,101256.91
2023-12-07T07:44:37.732Z,101255.16
2023-12-07T07:47:07.258Z,101261.22
2023-12-07T07:49:35.425Z,101251.69
2023-12-07T07:52:03.574Z,101268.13
2023-12-07T07:54:31.752Z,101280.19
2023-12-07T07:56:59.673Z,101266.38
2023-12-07T07:59:28.091Z,101267.22
2023-12-07T08:01:56.223Z,101271.53
2023-12-07T08:04:25.771Z,101274.94
2023-12-07T08:06:53.808Z,101274.94
2023-12-07T08:09:21.900Z,101280.97
2023-12-07T08:11:49.848Z,101280.09
2023-12-07T08:14:18.309Z,101279.22
2023-12-07T08:16:47.764Z,101276.56
2023-12-07T08:19:16.075Z,101291.25
2023-12-07T08:21:45.549Z,101285.19
2023-12-07T08:24:14.015Z,101288.66
2023-12-07T08:26:42.240Z,101288.69
2023-12-07T08:29:10.721Z,101289.56
2023-12-07T08:31:39.795Z,101295.59
2023-12-07T08:34:07.972Z,101296.38
2023-12-07T08:36:36.058Z,101309.31
2023-12-07T08:39:05.548Z,101309.22
2023-12-07T08:41:33.667Z,101304.06
2023-12-07T08:44:01.680Z,101305.78
2023-12-07T08:46:34.884Z,101298.88
2023-12-07T08:49:04.066Z,101304.91
2023-12-07T08:51:32.276Z,101314.41
2023-12-07T08:54:00.336Z,101301.47
2023-12-07T08:56:29.662Z,101306.56
2023-12-07T08:58:57.730Z,101305.69
2023-12-07T09:01:32.391Z,101298.81
2023-12-07T09:04:01.706Z,101302.25
2023-12-07T09:06:29.998Z,101305.63
2023-12-07T09:08:58.089Z,101304.78
2023-12-07T09:11:26.185Z,101301.31
2023-12-07T09:13:55.538Z,101287.53
2023-12-07T09:16:23.593Z,101298.78
2023-12-07T09:18:52.224Z,101301.38
2023-12-07T09:21:20.360Z,101315.88
2023-12-07T09:23:48.406Z,101312.44
2023-12-07T09:26:16.551Z,101321.00
2023-12-07T09:28:44.561Z,101312.41
2023-12-07T09:31:14.037Z,101306.31
2023-12-07T09:33:42.150Z,101309.75
2023-12-07T09:36:12.564Z,101316.63
2023-12-07T09:38:40.632Z,101315.69
2023-12-07T09:41:08.663Z,101308.69
2023-12-07T09:43:36.778Z,101308.63
2023-12-07T09:46:05.389Z,101309.44
2023-12-07T09:48:34.875Z,101315.22
2023-12-07T09:51:03.211Z,101315.31
2023-12-07T09:53:31.875Z,101315.34
2023-12-07T09:55:59.945Z,101310.88
2023-12-07T09:58:34.980Z,101310.03
2023-12-07T10:01:08.901Z,101292.75
2023-12-07T10:03:38.475Z,101296.22
2023-12-07T10:06:07.168Z,101298.66
2023-12-07T10:08:37.123Z,101281.47
2023-12-07T10:11:06.974Z,101300.38
2023-12-07T10:13:34.891Z,101291.06
2023-12-07T10:16:11.019Z,101291.00
2023-12-07T10:18:43.599Z,101285.09
2023-12-07T10:21:13.198Z,101284.94
2023-12-07T10:23:44.560Z,101282.16
2023-12-07T10:26:13.094Z,101276.75
2023-12-07T10:28:41.738Z,101270.66
2023-12-07T10:31:11.532Z,101278.53
2023-12-07T10:33:42.017Z,101268.88
2023-12-07T10:36:11.414Z,101259.38
2023-12-07T10:38:43.101Z,101263.53
2023-12-07T10:41:13.642Z,101252.53
2023-12-07T10:43:45.943Z,101262.69
2023-12-07T10:46:16.234Z,101272.09
2023-12-07T10:48:46.775Z,101267.53
2023-12-07T10:51:17.681Z,101268.41
2023-12-07T10:53:46.641Z,101264.75
2023-12-07T10:56:18.696Z,101265.59
2023-12-07T10:58:47.616Z,101255.22
2023-12-07T11:01:17.163Z,101259.47
2023-12-07T11:03:47.104Z,101256.75
2023-12-07T11:06:15.158Z,101267.16
2023-12-07T11:08:47.027Z,101250.66
2023-12-07T11:11:21.385Z,101254.03
2023-12-07T11:13:54.653Z,101252.22
2023-12-07T11:16:31.470Z,101229.97
2023-12-07T11:19:01.588Z,101220.69
2023-12-07T11:21:29.790Z,101233.56
2023-12-07T11:23:57.880Z,101236.69
2023-12-07T11:26:26.275Z,101228.06
2023-12-07T11:28:54.558Z,101229.28
2023-12-07T11:31:23.434Z,101214.84
2023-12-07T11:33:51.589Z,101221.50
2023-12-07T11:36:21.253Z,101213.63
2023-12-07T11:39:21.213Z,101204.28
2023-12-07T11:41:56.362Z,101205.06
2023-12-07T11:44:27.238Z,101201.72
2023-12-07T11:46:55.271Z,101192.34
2023-12-07T11:49:29.206Z,101194.63
2023-12-07T11:52:14.857Z,101193.28
2023-12-07T11:54:43.133Z,101199.13
2023-12-07T11:57:11.226Z,101188.97
2023-12-07T11:59:39.565Z,101195.00
2023-12-07T12:02:07.855Z,101187.94
2023-12-07T12:04:35.991Z,101195.94
2023-12-07T12:07:05.824Z,101182.31
2023-12-07T12:09:35.039Z,101176.34
2023-12-07T12:12:03.253Z,101171.09
2023-12-07T12:14:31.458Z,101165.72
2023-12-07T12:16:59.743Z,101158.72
2023-12-07T12:19:32.925Z,101147.28
2023-12-07T12:22:05.860Z,101154.00
2023-12-07T12:24:37.195Z,101160.56
2023-12-07T12:27:06.034Z,101163.72
2023-12-07T12:29:35.501Z,101152.47
2023-12-07T12:32:04.934Z,101155.78
2023-12-07T12:34:35.467Z,101138.09
2023-12-07T12:37:06.722Z,101130.78
2023-12-07T12:39:36.772Z,101141.03
2023-12-07T12:42:05.882Z,101135.38
2023-12-07T12:44:37.210Z,101126.00
2023-12-07T12:47:09.561Z,101127.66
2023-12-07T12:49:38.738Z,101129.59
2023-12-07T12:52:08.210Z,101114.38
2023-12-07T12:54:37.788Z,101132.03
2023-12-07T12:57:09.091Z,101118.47
2023-12-07T12:59:37.412Z,101115.56
2023-12-07T13:02:06.279Z,101106.09
2023-12-07T13:07:06.555Z,101108.41
2023-12-07T13:09:34.674Z,101110.03
2023-12-07T13:12:05.898Z,101103.16
2023-12-07T13:14:37.065Z,101099.81
2023-12-07T13:17:06.215Z,101090.50
2023-12-07T13:19:34.563Z,101095.44
2023-12-07T13:22:04.294Z,101077.75
2023-12-07T13:24:32.187Z,101077.66
2023-12-07T13:27:01.580Z,101085.25
2023-12-07T13:29:36.087Z,101081.06
2023-12-07T13:32:06.195Z,101087.00
2023-12-07T13:34:34.628Z,101085.44
2023-12-07T13:37:02.798Z,101079.47
2023-12-07T13:39:32.463Z,101075.19
2023-12-07T13:42:03.133Z,101059.94
2023-12-07T13:44:34.764Z,101065.41
2023-12-07T13:47:03.361Z,101062.50
2023-12-07T13:49:33.820Z,101073.75
2023-12-07T13:52:06.859Z,101067.56
2023-12-07T13:54:50.379Z,101060.84
2023-12-07T13:57:22.356Z,101055.56
2023-12-07T13:59:52.212Z,101053.25
2023-12-07T14:02:20.174Z,101052.22
2023-12-07T14:04:50.831Z,101048.50
2023-12-07T14:07:20.759Z,101044.31
2023-12-07T14:09:56.971Z,101043.59
2023-12-07T14:12:29.434Z,101044.28
2023-12-07T14:14:59.663Z,101020.44
2023-12-07T14:17:34.690Z,101029.13
2023-12-07T14:20:16.083Z,101033.41
2023-12-07T14:22:55.110Z,101035.84
2023-12-07T14:25:23.273Z,101021.44
2023-12-07T14:27:51.391Z,101012.47
2023-12-07T14:30:20.965Z,101013.22
2023-12-07T14:32:53.400Z,101010.59
2023-12-07T14:35:22.531Z,101008.25
2023-12-07T14:37:51.359Z,101006.28
2023-12-07T14:40:20.360Z,101002.06
2023-12-07T14:42:48.753Z,100994.34
2023-12-07T14:45:17.322Z,100991.16
2023-12-07T14:47:47.728Z,100987.84
2023-12-07T14:50:16.171Z,100972.59
2023-12-07T14:52:44.486Z,100976.84
2023-12-07T14:55:12.556Z,100983.75
2023-12-07T14:57:40.930Z,100974.16
2023-12-07T15:00:10.847Z,100958.84
2023-12-07T15:02:39.569Z,100970.91
2023-12-07T15:05:10.442Z,100961.56
2023-12-07T15:07:38.825Z,100962.56
2023-12-07T15:10:08.966Z,100969.78
2023-12-07T15:12:37.534Z,100963.72
2023-12-07T15:15:07.433Z,100952.78
2023-12-07T15:17:36.046Z,100956.06
2023-12-07T15:20:05.221Z,100943.47
2023-12-07T15:22:35.260Z,100939.09
2023-12-07T15:25:06.054Z,100937.25
2023-12-07T15:27:34.451Z,100927.06
2023-12-07T15:30:04.124Z,100932.84
2023-12-07T15:32:32.906Z,100916.19
2023-12-07T15:35:01.156Z,100906.53
2023-12-07T15:37:29.916Z,100911.94
2023-12-07T15:39:59.813Z,100914.72
2023-12-07T15:42:28.415Z,100916.66
2023-12-07T15:44:56.914Z,100911.69
2023-12-07T15:47:25.580Z,100925.97
2023-12-07T15:49:54.249Z,100914.13
2023-12-07T15:52:23.237Z,100917.84
2023-12-07T15:54:51.496Z,100912.69
2023-12-07T15:57:24.773Z,100921.13
2023-12-07T15:59:52.900Z,100916.13
2023-12-07T16:02:21.568Z,100919.78
2023-12-07T16:04:49.461Z,100923.00
2023-12-07T16:07:17.303Z,100913.78
2023-12-07T16:09:45.059Z,100904.31
2023-12-07T16:12:13.448Z,100905.06
2023-12-07T16:14:42.934Z,100909.25
2023-12-07T16:17:12.308Z,100888.97
2023-12-07T16:19:40.556Z,100878.19
2023-12-07T16:22:09.081Z,100884.56
2023-12-07T16:24:36.961Z,100886.91
2023-12-07T16:27:07.887Z,100868.06
2023-12-07T16:29:36.832Z,100855.50
2023-12-07T16:32:06.942Z,100850.06
2023-12-07T16:34:34.844Z,100854.19
2023-12-07T16:37:03.882Z,100846.59
2023-12-07T16:39:32.083Z,100843.84
2023-12-07T16:42:02.500Z,100838.84
2023-12-07T16:44:31.968Z,100837.03
2023-12-07T16:46:59.913Z,100828.34
2023-12-07T16:49:29.772Z,100831.13
2023-12-07T16:51:58.140Z,100837.66
2023-12-07T16:54:26.177Z,100835.88
2023-12-07T16:56:54.077Z,100831.88
2023-12-07T16:59:22.244Z,100829.38
2023-12-07T17:01:50.108Z,100828.28
2023-12-07T17:04:19.526Z,100825.94
2023-12-07T17:06:56.038Z,100838.59
2023-12-07T17:09:26.652Z,100824.75
2023-12-07T17:11:54.847Z,100815.25
2023-12-07T17:14:22.789Z,100812.66
2023-12-07T17:16:50.642Z,100809.53
2023-12-07T17:19:19.912Z,100811.16
2023-12-07T17:21:51.402Z,100802.47
2023-12-07T17:24:20.990Z,100792.97
2023-12-07T17:26:52.987Z,100800.69
2023-12-07T17:29:22.904Z,100818.63
2023-12-07T17:31:50.783Z,100831.56
2023-12-07T17:34:18.817Z,100828.00
2023-12-07T17:36:46.784Z,100813.72
2023-12-07T17:39:16.818Z,100806.13
2023-12-07T17:41:44.795Z,100806.16
2023-12-07T17:44:12.793Z,100813.09
2023-12-07T17:46:40.709Z,100792.56
2023-12-07T17:49:09.977Z,100796.00
2023-12-07T17:51:38.123Z,100795.16
2023-12-07T17:54:06.350Z,100787.22
2023-12-07T17:56:35.568Z,100778.94
2023-12-07T17:59:04.423Z,100767.78
2023-12-07T18:01:32.284Z,100777.22
2023-12-07T18:04:00.826Z,100775.69
2023-12-07T18:06:28.996Z,100771.16
2023-12-07T18:08:56.926Z,100767.75
2023-12-07T18:11:25.279Z,100757.38
2023-12-07T18:13:55.165Z,100751.38
2023-12-07T18:16:23.494Z,100752.13
2023-12-07T18:18:51.469Z,100745.34
2023-12-07T18:21:19.568Z,100736.88
2023-12-07T18:23:47.490Z,100716.50
2023-12-07T18:26:15.481Z,100726.34
2023-12-07T18:28:43.469Z,100725.56
2023-12-07T18:31:14.261Z,100720.38
2023-12-07T18:33:42.212Z,100705.06
2023-12-07T18:36:10.412Z,100707.53
2023-12-07T18:38:38.325Z,100713.31
2023-12-07T18:41:06.321Z,100702.16
2023-12-07T18:43:34.176Z,100706.47
2023-12-07T18:46:04.375Z,100701.09
2023-12-07T18:48:33.661Z,100705.53
2023-12-07T18:51:01.591Z,100706.56
2023-12-07T18:53:29.494Z,100710.75
2023-12-07T18:55:57.479Z,100688.38
2023-12-07T18:58:27.127Z,100704.72
2023-12-07T19:00:55.309Z,100699.38
2023-12-07T19:03:23.211Z,100706.34
2023-12-07T19:05:52.495Z,100709.72
2023-12-07T19:08:20.339Z,100708.97
2023-12-07T19:10:48.088Z,100708.28
2023-12-07T19:13:15.818Z,100714.06
2023-12-07T19:15:43.799Z,100723.41
2023-12-07T19:18:11.730Z,100713.94
2023-12-07T19:20:39.553Z,100696.75
2023-12-07T19:23:08.742Z,100711.09
2023-12-07T19:25:36.752Z,100704.22
2023-12-07T19:28:04.490Z,100687.75
2023-12-07T19:30:32.237Z,100681.06
2023-12-07T19:33:03.375Z,100681.91
2023-12-07T19:35:31.498Z,100681.84
2023-12-07T19:37:59.281Z,100674.09
2023-12-07T19:40:28.405Z,100675.00
2023-12-07T19:42:56.282Z,100680.09
2023-12-07T19:45:24.077Z,100681.03
2023-12-07T19:47:52.102Z,100669.81
2023-12-07T19:50:19.914Z,100662.91
2023-12-07T19:52:47.669Z,100668.13
2023-12-07T19:55:15.384Z,100647.59
2023-12-07T19:57:44.507Z,100650.94
2023-12-07T20:00:14.420Z,100651.63
2023-12-07T20:02:43.040Z,100650.00
2023-12-07T20:05:11.038Z,100638.97
2023-12-07T20:07:40.179Z,100644.09
2023-12-07T20:10:09.632Z,100644.84
2023-12-07T20:12:37.563Z,100630.28
2023-12-07T20:15:07.842Z,100623.25
2023-12-07T20:17:35.916Z,100623.31
2023-12-07T20:20:04.250Z,100621.50
2023-12-07T20:22:32.133Z,100603.59
2023-12-07T20:24:59.901Z,100601.81
2023-12-07T20:27:28.142Z,100597.41
2023-12-07T20:29:56.210Z,100593.19
2023-12-07T20:32:25.387Z,100582.75
2023-12-07T20:34:53.219Z,100568.25
2023-12-07T20:37:21.013Z,100556.16
2023-12-07T20:39:48.808Z,100567.25
2023-12-07T20:42:17.228Z,100562.16
2023-12-07T20:44:45.266Z,100558.78
2023-12-07T20:47:13.078Z,100555.41
2023-12-07T20:49:42.289Z,100541.03
2023-12-07T20:52:12.784Z,100537.22
2023-12-07T20:54:40.636Z,100542.53
2023-12-07T20:57:08.825Z,100542.47
2023-12-07T20:59:37.115Z,100539.75
2023-12-07T21:02:05.122Z,100531.34
2023-12-07T21:04:32.871Z,100533.69
2023-12-07T21:07:01.980Z,100527.50
2023-12-07T21:09:30.801Z,100517.50
2023-12-07T21:11:58.982Z,100509.59
2023-12-07T21:14:27.381Z,100520.09
2023-12-07T21:16:55.282Z,100518.22
2023-12-07T21:19:25.217Z,100519.63
2023-12-07T21:21:53.300Z,100511.00
2023-12-07T21:24:22.653Z,100501.63
2023-12-07T21:26:50.499Z,100498.84
2023-12-07T21:29:18.475Z,100500.44
2023-12-07T21:31:46.279Z,100494.38
2023-12-07T21:34:14.326Z,100473.16
2023-12-07T21:36:42.739Z,100480.59
2023-12-07T21:39:10.546Z,100469.59
2023-12-07T21:41:39.880Z,100471.31
2023-12-07T21:44:07.677Z,100460.81
2023-12-07T21:46:35.499Z,100470.34
2023-12-07T21:49:03.323Z,100468.44
2023-12-07T21:51:31.181Z,100452.84
2023-12-07T21:53:59.047Z,100444.50
2023-12-07T21:56:27.006Z,100434.97
2023-12-07T21:58:56.089Z,100439.13
2023-12-07T22:01:23.840Z,100438.34
2023-12-07T22:03:51.654Z,100431.31
2023-12-07T22:06:25.433Z,100428.66
2023-12-07T22:08:53.679Z,100418.38
2023-12-07T22:11:21.734Z,100402.91
2023-12-07T22:13:49.586Z,100412.28
2023-12-07T22:16:18.739Z,100420.69
2023-12-07T22:18:46.695Z,100419.00
2023-12-07T22:21:14.706Z,100412.22
2023-12-07T22:23:43.524Z,100414.53
2023-12-07T22:26:11.368Z,100402.09
2023-12-07T22:28:39.122Z,100413.72
2023-12-07T22:31:06.903Z,100412.88
2023-12-07T22:33:36.217Z,100399.00
2023-12-07T22:36:04.261Z,100387.13
2023-12-07T22:38:32.155Z,100391.00
2023-12-07T22:40:59.993Z,100369.84
2023-12-07T22:43:27.734Z,100356.69
2023-12-07T22:45:55.540Z,100359.13
2023-12-07T22:48:23.413Z,100355.31
2023-12-07T22:50:52.742Z,100346.16
2023-12-07T22:53:20.561Z,100352.00
2023-12-07T22:55:48.348Z,100346.94
2023-12-07T22:58:16.711Z,100334.00
2023-12-07T23:00:44.565Z,100334.91
2023-12-07T23:03:12.370Z,100339.63
2023-12-07T23:05:40.281Z,100322.50
2023-12-07T23:08:09.435Z,100314.25
2023-12-07T23:10:37.224Z,100318.22
2023-12-07T23:13:05.350Z,100309.88
2023-12-07T23:15:34.771Z,100307.00
2023-12-07T23:18:02.761Z,100310.16
2023-12-07T23:20:30.794Z,100299.78
2023-12-07T23:22:58.760Z,100282.69
2023-12-07T23:25:27.858Z,100283.56
2023-12-07T23:27:55.715Z,100286.06
2023-12-07T23:30:25.224Z,100279.28
2023-12-07T23:32:55.211Z,100291.63
2023-12-07T23:35:23.045Z,100281.78
2023-12-07T23:37:50.924Z,100279.84
2023-12-07T23:40:20.163Z,100275.78
2023-12-07T23:42:49.321Z,100261.69
2023-12-07T23:45:17.258Z,100255.56
2023-12-07T23:47:45.165Z,100252.19
2023-12-07T23:50:13.000Z,100253.53
2023-12-07T23:52:40.814Z,100256.09
2023-12-07T23:55:10.186Z,100261.91
2023-12-07T23:57:38.049Z,100271.28
